Time;durP1;ratioP1;P1;durP2;ratioP2;P2;SDS_P1;SDS_P2;PMS_P1;PMS_P2;Temp;Humidity;BMP_temperature;BMP_pressure;BME280_temperature;BME280_humidity;BME280_pressure;Samples;Min_cycle;Max_cycle;Signal;HPM_P1;HPM_P2
2023/07/19 00:00:56;;;;;;;;;;;23.70;56.30;;;;;;10289522;28;93566;-62
2023/07/19 00:06:01;;;;;;;;;;;23.70;56.20;;;;;;10290509;28;94517;-62
2023/07/19 00:11:03;;;;;;;;;;;23.60;56.10;;;;;;10290370;28;94465;-66
2023/07/19 00:16:05;;;;;;;;;;;23.60;56.10;;;;;;10291386;28;94958;-62
2023/07/19 00:21:07;;;;;;;;;;;23.60;56.10;;;;;;10288575;28;93595;-62
2023/07/19 00:26:08;;;;;;;;;;;23.70;56.10;;;;;;10290069;28;94495;-62
2023/07/19 00:31:10;;;;;;;;;;;23.60;56.10;;;;;;10289561;28;94108;-62
2023/07/19 00:36:12;;;;;;;;;;;23.60;56.10;;;;;;10289057;28;93621;-62
2023/07/19 00:41:14;;;;;;;;;;;23.60;56.10;;;;;;10287384;28;94514;-61
2023/07/19 00:46:17;;;;;;;;;;;23.60;56.00;;;;;;10286247;28;98617;-63
2023/07/19 00:51:19;;;;;;;;;;;23.60;56.00;;;;;;10287317;28;93388;-66
2023/07/19 00:56:21;;;;;;;;;;;23.60;56.10;;;;;;10270311;28;92586;-66
2023/07/19 01:01:24;;;;;;;;;;;23.60;56.10;;;;;;10288641;28;93903;-65
2023/07/19 01:06:25;;;;;;;;;;;23.60;56.10;;;;;;10289203;28;93461;-66
2023/07/19 01:11:27;;;;;;;;;;;23.60;56.10;;;;;;10289244;28;94563;-62
2023/07/19 01:16:29;;;;;;;;;;;23.50;56.00;;;;;;10288073;28;93560;-68
2023/07/19 01:21:30;;;;;;;;;;;23.50;56.10;;;;;;10288971;28;93558;-66
2023/07/19 01:26:33;;;;;;;;;;;23.50;56.10;;;;;;10287370;28;93346;-66
2023/07/19 01:31:35;;;;;;;;;;;23.50;56.40;;;;;;10287049;28;94734;-67
2023/07/19 01:36:37;;;;;;;;;;;23.50;56.10;;;;;;10284723;28;96831;-62
2023/07/19 01:41:38;;;;;;;;;;;23.50;56.10;;;;;;10285438;28;93405;-66
2023/07/19 01:46:40;;;;;;;;;;;23.50;56.10;;;;;;10287729;28;93468;-62
2023/07/19 01:51:42;;;;;;;;;;;23.50;56.10;;;;;;10285373;28;94627;-62
2023/07/19 01:56:44;;;;;;;;;;;23.40;56.10;;;;;;10328287;28;93645;-62
2023/07/19 02:01:45;;;;;;;;;;;23.40;56.10;;;;;;10328224;28;94667;-65
2023/07/19 02:06:47;;;;;;;;;;;23.40;56.00;;;;;;10328174;28;94503;-66
2023/07/19 02:11:49;;;;;;;;;;;23.40;56.00;;;;;;10329108;28;94336;-66
2023/07/19 02:16:51;;;;;;;;;;;23.40;56.10;;;;;;10308393;28;93300;-62
2023/07/19 02:21:53;;;;;;;;;;;23.40;56.10;;;;;;10309167;28;94482;-62
2023/07/19 02:26:54;;;;;;;;;;;23.40;56.20;;;;;;10307604;28;97161;-66
2023/07/19 02:31:56;;;;;;;;;;;23.30;56.10;;;;;;10327117;28;94543;-65
2023/07/19 02:36:58;;;;;;;;;;;23.30;56.10;;;;;;10326584;28;94367;-62
2023/07/19 02:42:00;;;;;;;;;;;23.30;56.10;;;;;;10326437;28;93568;-66
2023/07/19 02:47:01;;;;;;;;;;;23.30;56.20;;;;;;10332887;28;94585;-66
2023/07/19 02:52:03;;;;;;;;;;;23.30;56.20;;;;;;10315674;28;94612;-66
2023/07/19 02:57:05;;;;;;;;;;;23.30;56.30;;;;;;10334215;28;94459;-66
2023/07/19 03:02:07;;;;;;;;;;;23.20;56.40;;;;;;10316325;28;92693;-62
2023/07/19 03:07:08;;;;;;;;;;;23.30;56.50;;;;;;10332922;28;93608;-62
2023/07/19 03:12:10;;;;;;;;;;;23.30;56.50;;;;;;10332396;28;94512;-62
2023/07/19 03:17:12;;;;;;;;;;;23.20;56.60;;;;;;10311539;28;95915;-66
2023/07/19 03:22:14;;;;;;;;;;;23.20;56.60;;;;;;10332920;28;94479;-62
2023/07/19 03:27:16;;;;;;;;;;;23.20;56.70;;;;;;10333000;28;96134;-66
2023/07/19 03:32:17;;;;;;;;;;;23.20;56.80;;;;;;10313784;28;93639;-62
2023/07/19 03:37:20;;;;;;;;;;;23.20;56.80;;;;;;10314964;28;93872;-62
2023/07/19 03:42:21;;;;;;;;;;;23.20;56.90;;;;;;10331466;28;93672;-62
2023/07/19 03:47:25;;;;;;;;;;;23.20;56.90;;;;;;10331183;28;94133;-62
2023/07/19 03:52:26;;;;;;;;;;;23.20;57.00;;;;;;10314840;28;93633;-62
2023/07/19 03:57:28;;;;;;;;;;;23.20;57.10;;;;;;10312112;28;94554;-62
2023/07/19 04:02:30;;;;;;;;;;;23.20;57.10;;;;;;10331986;28;93663;-65
2023/07/19 04:07:32;;;;;;;;;;;23.20;57.10;;;;;;10329280;28;96126;-65
2023/07/19 04:12:33;;;;;;;;;;;23.20;57.10;;;;;;10330495;28;93638;-67
2023/07/19 04:17:36;;;;;;;;;;;23.20;57.10;;;;;;10331253;28;93157;-65
2023/07/19 04:22:37;;;;;;;;;;;23.20;57.00;;;;;;10330479;28;94113;-66
2023/07/19 04:27:39;;;;;;;;;;;23.30;57.20;;;;;;10313304;28;93490;-62
2023/07/19 04:32:41;;;;;;;;;;;23.20;57.10;;;;;;10329784;28;93486;-62
2023/07/19 04:37:43;;;;;;;;;;;23.20;57.10;;;;;;10330644;28;94566;-67
2023/07/19 04:42:45;;;;;;;;;;;23.30;57.20;;;;;;10313978;28;93890;-66
2023/07/19 04:47:47;;;;;;;;;;;23.20;57.20;;;;;;10751310;22;94736;-64
2023/07/19 04:52:49;;;;;;;;;;;23.30;57.30;;;;;;10351424;28;92791;-64
2023/07/19 04:57:51;;;;;;;;;;;23.30;57.20;;;;;;10364011;28;96670;-64
2023/07/19 05:02:53;;;;;;;;;;;23.30;57.20;;;;;;10366672;28;94090;-64
2023/07/19 05:07:55;;;;;;;;;;;23.30;57.20;;;;;;10363617;28;92660;-64
2023/07/19 05:12:56;;;;;;;;;;;23.30;57.10;;;;;;10348015;28;94115;-66
2023/07/19 05:18:00;;;;;;;;;;;23.30;57.20;;;;;;10365200;28;93467;-66
2023/07/19 05:23:02;;;;;;;;;;;23.30;58.20;;;;;;10365140;28;93546;-66
2023/07/19 05:28:04;;;;;;;;;;;23.40;58.40;;;;;;10365154;28;93414;-66
2023/07/19 05:33:05;;;;;;;;;;;23.40;59.00;;;;;;10365347;28;94293;-66
2023/07/19 05:38:08;;;;;;;;;;;23.40;58.90;;;;;;10365433;28;93460;-64
2023/07/19 05:43:09;;;;;;;;;;;23.40;58.70;;;;;;10364045;28;94508;-64
2023/07/19 05:48:11;;;;;;;;;;;23.40;58.50;;;;;;10356580;28;95898;-64
2023/07/19 05:53:13;;;;;;;;;;;23.40;58.40;;;;;;10363987;28;94768;-65
2023/07/19 05:58:15;;;;;;;;;;;23.40;58.40;;;;;;10369341;28;94615;-64
2023/07/19 06:03:16;;;;;;;;;;;23.40;58.00;;;;;;10368738;28;93673;-64
2023/07/19 06:08:19;;;;;;;;;;;23.40;58.10;;;;;;10369677;28;94545;-63
2023/07/19 06:13:26;;;;;;;;;;;23.40;58.20;;;;;;10368058;28;93384;-65
2023/07/19 06:18:28;;;;;;;;;;;23.30;58.00;;;;;;10370395;28;93404;-64
2023/07/19 06:23:29;;;;;;;;;;;23.40;58.00;;;;;;10359771;28;93370;-64
2023/07/19 06:28:31;;;;;;;;;;;23.30;58.10;;;;;;10375835;28;93553;-63
2023/07/19 06:33:33;;;;;;;;;;;23.30;57.80;;;;;;10356978;28;93656;-64
2023/07/19 06:38:37;;;;;;;;;;;23.30;57.90;;;;;;10373381;28;96922;-64
2023/07/19 06:43:40;;;;;;;;;;;23.30;57.80;;;;;;10375314;28;93450;-63
2023/07/19 06:48:43;;;;;;;;;;;23.30;57.80;;;;;;10356717;28;93533;-63
2023/07/19 06:53:44;;;;;;;;;;;23.30;57.80;;;;;;10374879;28;94003;-63
2023/07/19 06:58:46;;;;;;;;;;;23.30;57.70;;;;;;10374730;28;93488;-64
2023/07/19 07:03:48;;;;;;;;;;;23.30;57.60;;;;;;10375458;28;94186;-63
2023/07/19 07:08:50;;;;;;;;;;;23.30;57.60;;;;;;10374793;28;92783;-64
2023/07/19 07:13:52;;;;;;;;;;;23.30;57.50;;;;;;10375473;28;93205;-63
2023/07/19 07:18:53;;;;;;;;;;;23.30;57.40;;;;;;10374809;28;93517;-63
2023/07/19 07:23:55;;;;;;;;;;;23.40;57.40;;;;;;10356329;28;94475;-64
2023/07/19 07:28:57;;;;;;;;;;;23.40;57.60;;;;;;10371317;28;95932;-64
2023/07/19 07:33:59;;;;;;;;;;;23.40;57.40;;;;;;10372146;28;93519;-64
2023/07/19 07:39:00;;;;;;;;;;;23.40;57.50;;;;;;10373180;28;93553;-65
2023/07/19 07:44:03;;;;;;;;;;;23.40;57.40;;;;;;10355424;28;94219;-65
2023/07/19 07:49:05;;;;;;;;;;;23.30;57.40;;;;;;10373087;28;94358;-63
2023/07/19 07:54:07;;;;;;;;;;;23.40;57.30;;;;;;10374490;28;93191;-64
2023/07/19 07:59:09;;;;;;;;;;;23.40;57.10;;;;;;10373797;28;93550;-63
2023/07/19 08:04:12;;;;;;;;;;;23.40;57.20;;;;;;10375011;28;93751;-62
2023/07/19 08:09:13;;;;;;;;;;;23.50;57.20;;;;;;10374866;28;94559;-64
2023/07/19 08:14:15;;;;;;;;;;;23.50;57.10;;;;;;10373434;28;94602;-65
2023/07/19 08:19:17;;;;;;;;;;;23.50;58.10;;;;;;10369932;28;95899;-65
2023/07/19 08:24:19;;;;;;;;;;;23.40;57.00;;;;;;10354632;28;93592;-65
2023/07/19 08:29:21;;;;;;;;;;;23.40;57.00;;;;;;10372771;28;92780;-65
2023/07/19 08:34:22;;;;;;;;;;;23.40;57.00;;;;;;10372402;28;93492;-65
2023/07/19 08:39:27;;;;;;;;;;;23.50;57.10;;;;;;10372597;28;92398;-64
2023/07/19 08:44:28;;;;;;;;;;;23.50;57.00;;;;;;10371801;28;93658;-64
2023/07/19 08:49:32;;;;;;;;;;;23.40;56.90;;;;;;10372074;28;93845;-64
2023/07/19 08:54:34;;;;;;;;;;;23.40;56.90;;;;;;10354330;28;92796;-63
2023/07/19 08:59:36;;;;;;;;;;;23.40;57.00;;;;;;10371416;28;93334;-64
2023/07/19 09:04:38;;;;;;;;;;;23.40;56.90;;;;;;10371836;28;94611;-64
2023/07/19 09:09:40;;;;;;;;;;;23.40;56.80;;;;;;10367989;28;96353;-64
2023/07/19 09:14:42;;;;;;;;;;;23.40;56.80;;;;;;10369910;28;93473;-64
2023/07/19 09:19:44;;;;;;;;;;;23.40;56.70;;;;;;10371359;28;95357;-63
2023/07/19 09:24:55;;;;;;;;;;;23.40;56.60;;;;;;10370184;28;114429;-63
2023/07/19 09:29:57;;;;;;;;;;;23.40;56.60;;;;;;10370130;28;93520;-64
2023/07/19 09:35:00;;;;;;;;;;;23.40;56.50;;;;;;10370057;28;93477;-64
2023/07/19 09:40:03;;;;;;;;;;;23.40;56.50;;;;;;10370263;28;93728;-64
2023/07/19 09:45:06;;;;;;;;;;;23.40;56.50;;;;;;10371452;28;93838;-64
2023/07/19 09:50:08;;;;;;;;;;;23.40;56.50;;;;;;10351176;28;94546;-64
2023/07/19 09:55:10;;;;;;;;;;;23.40;56.50;;;;;;10369163;28;94622;-65
2023/07/19 10:00:12;;;;;;;;;;;23.50;56.20;;;;;;10367154;28;96007;-63
2023/07/19 10:05:14;;;;;;;;;;;23.60;56.00;;;;;;10369108;28;94276;-63
2023/07/19 10:10:16;;;;;;;;;;;23.70;55.90;;;;;;10369902;28;94188;-63
2023/07/19 10:15:20;;;;;;;;;;;23.80;55.80;;;;;;10368199;28;93466;-63
2023/07/19 10:20:50;;;;;;;;;;;23.80;55.60;;;;;;10351266;28;94631;-63
2023/07/19 10:25:51;;;;;;;;;;;23.80;55.50;;;;;;10327882;28;94662;-63
2023/07/19 10:30:54;;;;;;;;;;;23.90;55.50;;;;;;10350594;28;94965;-64
2023/07/19 10:36:03;;;;;;;;;;;23.80;55.40;;;;;;10369776;28;93705;-63
2023/07/19 10:41:07;;;;;;;;;;;23.80;55.50;;;;;;10368173;28;93580;-65
2023/07/19 10:46:08;;;;;;;;;;;23.80;55.50;;;;;;10350183;28;94426;-63
2023/07/19 10:51:10;;;;;;;;;;;23.80;55.60;;;;;;10347359;28;96181;-63
2023/07/19 10:56:15;;;;;;;;;;;23.80;55.60;;;;;;10350241;28;94406;-64
2023/07/19 11:01:17;;;;;;;;;;;23.80;55.50;;;;;;10367667;28;93439;-64
2023/07/19 11:06:20;;;;;;;;;;;23.90;55.50;;;;;;10369078;28;93522;-63
2023/07/19 11:11:22;;;;;;;;;;;23.90;55.50;;;;;;10374840;28;92814;-64
2023/07/19 11:16:25;;;;;;;;;;;23.80;55.50;;;;;;10375602;28;94405;-64
2023/07/19 11:21:28;;;;;;;;;;;23.90;55.50;;;;;;10373997;28;93967;-63
2023/07/19 11:26:30;;;;;;;;;;;23.90;55.60;;;;;;10374120;28;93045;-63
2023/07/19 11:31:33;;;;;;;;;;;23.90;55.60;;;;;;10373953;28;93462;-63
2023/07/19 11:36:39;;;;;;;;;;;23.90;55.60;;;;;;10373337;28;93422;-63
2023/07/19 11:41:41;;;;;;;;;;;23.90;55.50;;;;;;10371810;28;96304;-63
2023/07/19 11:46:43;;;;;;;;;;;24.00;55.60;;;;;;10373659;28;93577;-63
2023/07/19 11:51:46;;;;;;;;;;;24.00;55.60;;;;;;10372771;28;93368;-64
2023/07/19 11:56:48;;;;;;;;;;;24.00;55.50;;;;;;10364615;28;94460;-64
2023/07/19 12:01:50;;;;;;;;;;;23.90;55.40;;;;;;10356214;28;93515;-63
2023/07/19 12:06:51;;;;;;;;;;;24.00;55.30;;;;;;10373419;28;94470;-64
2023/07/19 12:11:53;;;;;;;;;;;24.00;55.40;;;;;;10373444;28;94415;-64
2023/07/19 12:16:55;;;;;;;;;;;24.00;55.30;;;;;;10373144;28;93831;-64
2023/07/19 12:21:57;;;;;;;;;;;24.00;55.30;;;;;;10372448;28;95517;-63
2023/07/19 12:26:58;;;;;;;;;;;24.00;55.30;;;;;;10373044;28;94593;-63
2023/07/19 12:32:01;;;;;;;;;;;24.00;55.30;;;;;;10371045;28;96974;-64
2023/07/19 12:37:03;;;;;;;;;;;24.00;55.30;;;;;;10370794;28;93604;-63
2023/07/19 12:42:04;;;;;;;;;;;24.00;55.30;;;;;;10372853;28;94379;-64
2023/07/19 12:47:07;;;;;;;;;;;24.00;55.30;;;;;;10371673;28;94480;-65
2023/07/19 12:52:11;;;;;;;;;;;24.00;55.30;;;;;;10371684;28;94652;-65
2023/07/19 12:57:13;;;;;;;;;;;24.00;55.30;;;;;;10371861;28;97153;-64
2023/07/19 13:02:15;;;;;;;;;;;24.00;55.20;;;;;;10354692;28;94428;-64
2023/07/19 13:07:17;;;;;;;;;;;24.10;55.20;;;;;;10372017;28;93668;-64
2023/07/19 13:12:19;;;;;;;;;;;24.10;55.20;;;;;;10370488;28;94466;-65
2023/07/19 13:17:21;;;;;;;;;;;24.10;55.30;;;;;;10370927;28;92743;-66
2023/07/19 13:22:24;;;;;;;;;;;24.10;55.30;;;;;;10369033;28;96740;-64
2023/07/19 13:27:26;;;;;;;;;;;24.00;55.30;;;;;;10352613;28;93597;-65
2023/07/19 13:32:27;;;;;;;;;;;24.00;55.30;;;;;;10372040;28;94538;-65
2023/07/19 13:37:29;;;;;;;;;;;24.00;55.30;;;;;;10370665;28;93461;-65
2023/07/19 13:42:37;;;;;;;;;;;24.00;55.30;;;;;;10370958;28;94059;-65
2023/07/19 13:47:39;;;;;;;;;;;24.00;55.30;;;;;;10369175;28;94580;-64
2023/07/19 13:52:44;;;;;;;;;;;24.00;55.30;;;;;;10370391;28;94019;-65
2023/07/19 13:57:45;;;;;;;;;;;24.00;55.30;;;;;;10369332;28;93426;-65
2023/07/19 14:02:47;;;;;;;;;;;24.00;55.30;;;;;;10369452;28;92922;-65
2023/07/19 14:07:50;;;;;;;;;;;24.00;55.30;;;;;;10351364;28;94535;-65
2023/07/19 14:12:52;;;;;;;;;;;24.00;55.30;;;;;;10350373;28;95915;-64
2023/07/19 14:17:57;;;;;;;;;;;24.00;55.30;;;;;;10369226;28;93225;-64
2023/07/19 14:22:59;;;;;;;;;;;24.00;55.40;;;;;;10369657;28;94044;-64
2023/07/19 14:28:00;;;;;;;;;;;24.00;55.50;;;;;;10367999;28;92564;-65
2023/07/19 14:33:03;;;;;;;;;;;24.00;55.50;;;;;;10369592;28;94597;-65
2023/07/19 14:38:05;;;;;;;;;;;24.00;55.60;;;;;;10368803;28;93627;-65
2023/07/19 14:43:07;;;;;;;;;;;24.00;55.70;;;;;;10375771;28;94362;-64
2023/07/19 14:48:08;;;;;;;;;;;24.00;55.70;;;;;;10375260;28;92811;-65
2023/07/19 14:53:10;;;;;;;;;;;24.00;55.70;;;;;;10376177;28;93598;-65
2023/07/19 14:58:12;;;;;;;;;;;24.00;55.50;;;;;;10373852;28;93649;-64
2023/07/19 15:03:14;;;;;;;;;;;24.00;55.50;;;;;;10372720;28;96886;-62
2023/07/19 15:08:29;;;;;;;;;;;24.00;55.50;;;;;;10359461;28;94934;-64
2023/07/19 15:13:31;;;;;;;;;;;24.00;55.50;;;;;;10374275;28;93595;-63
2023/07/19 15:18:33;;;;;;;;;;;24.00;55.50;;;;;;10374384;28;93553;-63
2023/07/19 15:23:35;;;;;;;;;;;24.00;55.50;;;;;;10373460;28;93617;-64
2023/07/19 15:28:37;;;;;;;;;;;24.00;55.50;;;;;;10357060;28;94420;-64
2023/07/19 15:33:38;;;;;;;;;;;24.00;55.50;;;;;;10355098;28;94674;-64
2023/07/19 15:38:41;;;;;;;;;;;24.00;55.60;;;;;;10373154;28;93860;-64
2023/07/19 15:43:43;;;;;;;;;;;24.00;55.50;;;;;;10373224;28;93628;-65
2023/07/19 15:48:45;;;;;;;;;;;24.00;55.50;;;;;;10373120;28;94911;-64
2023/07/19 15:53:47;;;;;;;;;;;24.10;55.60;;;;;;10370108;28;95949;-64
2023/07/19 15:58:49;;;;;;;;;;;24.10;56.20;;;;;;10372464;28;94676;-63
2023/07/19 16:03:51;;;;;;;;;;;24.00;54.30;;;;;;10372567;28;92850;-64
2023/07/19 16:08:54;;;;;;;;;;;24.00;54.60;;;;;;10354716;28;94907;-65
2023/07/19 16:13:56;;;;;;;;;;;24.00;54.70;;;;;;10355150;28;94790;-63
2023/07/19 16:18:58;;;;;;;;;;;24.00;56.20;;;;;;10372707;28;93672;-64
2023/07/19 16:24:00;;;;;;;;;;;24.10;56.40;;;;;;10373300;28;94460;-64
2023/07/19 16:29:02;;;;;;;;;;;24.10;55.50;;;;;;10373867;28;93793;-64
2023/07/19 16:34:03;;;;;;;;;;;24.20;54.70;;;;;;10371865;28;94817;-65
2023/07/19 16:39:06;;;;;;;;;;;24.20;53.80;;;;;;10354286;28;93559;-64
2023/07/19 16:44:09;;;;;;;;;;;24.20;53.30;;;;;;10369192;28;95999;-65
2023/07/19 16:49:11;;;;;;;;;;;24.20;53.10;;;;;;10371472;28;94414;-66
2023/07/19 16:54:13;;;;;;;;;;;24.20;53.30;;;;;;10371313;28;94421;-65
2023/07/19 16:59:14;;;;;;;;;;;24.10;52.40;;;;;;10371042;28;94510;-63
2023/07/19 17:04:16;;;;;;;;;;;24.00;52.10;;;;;;10370819;28;94084;-65
2023/07/19 17:09:18;;;;;;;;;;;23.80;52.10;;;;;;10370708;28;94453;-66
2023/07/19 17:14:20;;;;;;;;;;;23.70;52.10;;;;;;10352639;28;93665;-64
2023/07/19 17:19:22;;;;;;;;;;;23.70;52.70;;;;;;10371314;28;92832;-64
2023/07/19 17:24:24;;;;;;;;;;;23.60;52.60;;;;;;10369680;28;93494;-65
2023/07/19 17:29:26;;;;;;;;;;;23.50;52.80;;;;;;10352817;28;94422;-64
2023/07/19 17:34:28;;;;;;;;;;;23.40;52.90;;;;;;10368364;28;96977;-64
2023/07/19 17:39:29;;;;;;;;;;;23.30;53.10;;;;;;10369963;28;93549;-65
2023/07/19 17:44:31;;;;;;;;;;;23.30;53.10;;;;;;10370233;28;95422;-65
2023/07/19 17:49:33;;;;;;;;;;;23.20;53.10;;;;;;10369474;28;94899;-65
2023/07/19 17:54:35;;;;;;;;;;;23.20;53.30;;;;;;10352011;28;93580;-64
2023/07/19 17:59:41;;;;;;;;;;;23.10;53.40;;;;;;10369566;28;94485;-65
2023/07/19 18:04:44;;;;;;;;;;;23.00;54.30;;;;;;10370295;28;94349;-65
2023/07/19 18:09:46;;;;;;;;;;;23.00;53.40;;;;;;10370156;28;92841;-65
2023/07/19 18:14:48;;;;;;;;;;;23.00;53.60;;;;;;10371655;28;94729;-65
2023/07/19 18:19:49;;;;;;;;;;;23.00;53.50;;;;;;10376586;28;94428;-66
2023/07/19 18:24:51;;;;;;;;;;;23.00;53.50;;;;;;10374912;28;97021;-65
2023/07/19 18:29:53;;;;;;;;;;;23.00;53.60;;;;;;10376265;28;95506;-65
2023/07/19 18:34:55;;;;;;;;;;;23.10;53.50;;;;;;10376028;28;93157;-65
2023/07/19 18:39:57;;;;;;;;;;;23.10;53.60;;;;;;10375492;28;92907;-65
2023/07/19 18:44:58;;;;;;;;;;;23.10;53.60;;;;;;10375541;28;93677;-65
2023/07/19 18:50:00;;;;;;;;;;;23.20;53.60;;;;;;10374079;28;93595;-64
2023/07/19 18:55:02;;;;;;;;;;;23.30;53.70;;;;;;10374688;28;93701;-64
2023/07/19 19:00:05;;;;;;;;;;;23.40;53.70;;;;;;10375356;28;91838;-64
2023/07/19 19:05:07;;;;;;;;;;;23.40;53.60;;;;;;10374345;28;94565;-64
2023/07/19 19:10:08;;;;;;;;;;;23.50;53.60;;;;;;10375021;28;94644;-64
2023/07/19 19:15:11;;;;;;;;;;;23.50;53.50;;;;;;10371696;28;96824;-63
2023/07/19 19:20:13;;;;;;;;;;;23.60;53.50;;;;;;10374394;28;93615;-65
2023/07/19 19:25:15;;;;;;;;;;;23.60;53.50;;;;;;10373336;28;94429;-64
2023/07/19 19:30:17;;;;;;;;;;;23.60;53.50;;;;;;10373269;28;94068;-64
2023/07/19 19:35:19;;;;;;;;;;;23.60;53.60;;;;;;10373713;28;94452;-63
2023/07/19 19:40:21;;;;;;;;;;;23.60;53.70;;;;;;10373050;28;93457;-64
2023/07/19 19:45:22;;;;;;;;;;;23.70;53.70;;;;;;10356494;28;94590;-64
2023/07/19 19:50:26;;;;;;;;;;;23.70;53.80;;;;;;10354737;28;93684;-65
2023/07/19 19:55:28;;;;;;;;;;;23.70;53.80;;;;;;10355389;28;94727;-65
2023/07/19 20:00:50;;;;;;;;;;;23.70;53.80;;;;;;10371895;28;94015;-64
2023/07/19 20:05:55;;;;;;;;;;;23.70;53.70;;;;;;10370331;28;96196;-65
2023/07/19 20:10:57;;;;;;;;;;;23.70;53.80;;;;;;10371743;28;93696;-65
2023/07/19 20:16:00;;;;;;;;;;;23.80;53.90;;;;;;10353902;28;94064;-64
2023/07/19 20:21:02;;;;;;;;;;;23.80;54.00;;;;;;10372217;28;93437;-65
2023/07/19 20:26:04;;;;;;;;;;;23.80;54.00;;;;;;10371419;28;94711;-65
2023/07/19 20:31:12;;;;;;;;;;;23.80;54.00;;;;;;10371565;28;94220;-65
2023/07/19 20:36:33;;;;;;;;;;;23.80;54.00;;;;;;10356744;28;93638;-65
2023/07/19 20:41:38;;;;;;;;;;;23.70;54.20;;;;;;10372310;28;92511;-64
2023/07/19 20:46:40;;;;;;;;;;;23.70;54.20;;;;;;10371098;28;93459;-64
2023/07/19 20:51:43;;;;;;;;;;;23.60;54.20;;;;;;10353057;28;94663;-64
2023/07/19 20:56:47;;;;;;;;;;;23.60;54.30;;;;;;10367662;28;95841;-64
2023/07/19 21:01:49;;;;;;;;;;;23.60;54.40;;;;;;10370300;28;93720;-64
2023/07/19 21:06:51;;;;;;;;;;;23.60;54.40;;;;;;10370705;28;94619;-65
2023/07/19 21:11:52;;;;;;;;;;;23.60;54.40;;;;;;10370881;28;93487;-65
2023/07/19 21:16:55;;;;;;;;;;;23.60;54.50;;;;;;10371504;28;93663;-63
2023/07/19 21:21:57;;;;;;;;;;;23.50;54.50;;;;;;10369389;28;93666;-65
2023/07/19 21:26:58;;;;;;;;;;;23.50;55.50;;;;;;10370126;28;93521;-63
2023/07/19 21:32:00;;;;;;;;;;;23.50;54.60;;;;;;10370066;28;93020;-64
2023/07/19 21:37:02;;;;;;;;;;;23.50;54.70;;;;;;10370338;28;93356;-65
2023/07/19 21:42:06;;;;;;;;;;;23.50;54.80;;;;;;10371095;28;94515;-65
2023/07/19 21:47:08;;;;;;;;;;;23.50;54.90;;;;;;10349463;28;96821;-65
2023/07/19 21:52:10;;;;;;;;;;;23.50;54.90;;;;;;10368938;28;94750;-65
2023/07/19 21:57:11;;;;;;;;;;;23.50;55.00;;;;;;10368879;28;94037;-65
2023/07/19 22:02:13;;;;;;;;;;;23.50;55.20;;;;;;10369998;28;94830;-64
2023/07/19 22:07:15;;;;;;;;;;;23.50;55.20;;;;;;10351108;28;94621;-65
2023/07/19 22:12:17;;;;;;;;;;;23.50;55.30;;;;;;10368293;28;93606;-64
2023/07/19 22:17:19;;;;;;;;;;;23.50;55.30;;;;;;10351182;28;93160;-64
2023/07/19 22:22:21;;;;;;;;;;;23.50;55.40;;;;;;10368915;28;92844;-64
2023/07/19 22:27:22;;;;;;;;;;;23.40;55.40;;;;;;10369036;28;94698;-64
2023/07/19 22:32:25;;;;;;;;;;;23.40;55.40;;;;;;10368082;28;93141;-65
2023/07/19 22:37:26;;;;;;;;;;;23.40;55.40;;;;;;10365577;28;95849;-65
2023/07/19 22:42:28;;;;;;;;;;;23.40;55.60;;;;;;10368255;28;93911;-64
2023/07/19 22:47:30;;;;;;;;;;;23.40;55.70;;;;;;10368052;28;93645;-64
2023/07/19 22:52:32;;;;;;;;;;;23.40;55.70;;;;;;10368780;28;94185;-64
2023/07/19 22:57:33;;;;;;;;;;;23.40;55.70;;;;;;10366905;28;93543;-65
2023/07/19 23:02:35;;;;;;;;;;;23.40;55.80;;;;;;10372903;28;94434;-65
2023/07/19 23:07:37;;;;;;;;;;;23.40;55.90;;;;;;10356421;28;94374;-65
2023/07/19 23:12:39;;;;;;;;;;;23.40;55.90;;;;;;10375410;28;93804;-66
2023/07/19 23:17:41;;;;;;;;;;;23.30;56.00;;;;;;10374780;28;94473;-65
2023/07/19 23:22:42;;;;;;;;;;;23.40;56.10;;;;;;10374326;28;93675;-65
2023/07/19 23:27:44;;;;;;;;;;;23.40;56.10;;;;;;10371155;28;95838;-65
2023/07/19 23:32:46;;;;;;;;;;;23.30;56.10;;;;;;10355881;28;94678;-65
2023/07/19 23:37:50;;;;;;;;;;;23.30;56.10;;;;;;10373725;28;93593;-65
2023/07/19 23:42:52;;;;;;;;;;;23.30;56.10;;;;;;10372995;28;93448;-65
2023/07/19 23:47:54;;;;;;;;;;;23.30;56.20;;;;;;10373775;28;94147;-65
2023/07/19 23:52:56;;;;;;;;;;;23.30;56.30;;;;;;10373260;28;93473;-64
2023/07/19 23:57:57;;;;;;;;;;;23.30;56.30;;;;;;10355212;28;94449;-65
